首页
METAR-TAF:

METAR-TAF

机场 :

布里奇波特, 康乃狄克州, 美国

纬度: 41-09-30N, 经度: 073-07-44W, 海拔: 3米

当前天气观测

该预报发布于33分钟前的06:52 UTC
风速4节,风向西转西南
温度 3°C
湿度 87%
气压 1020 hPa
能見度: 14.5公里
多云层高于7000英尺
阴天层高于8500英尺

METAR: KBDR 170652Z AUTO 24004KT 9SM BKN070 OVC085 03/01 A3011 RMK AO2 SLP195 T00330006

时间: 02:25 (07:25 UTC)

预报

该预报发布于2小时和2分钟前的05:23 UTC
预报有效从17日的 06点(UTC)到 18日的 06点(UTC)
风速4节,风向多变
能見度: 10公里
多云层高于6000英尺
多云层高于10000英尺
多云层高于25000英尺
从 17日的 1000点(UTC)
风速4节,风向西北
能見度: 10公里
少量云层高于6000英尺
多云层高于25000英尺
从 17日的 1400点(UTC)
风速8节,风向北转西北
能見度: 10公里
少量云层高于6000英尺
散云层高于25000英尺
从 17日的 2300点(UTC)
风速5节,风向
能見度: 10公里
散云层高于25000英尺
从 18日的 0300点(UTC)
风速3节,风向多变
能見度: 10公里
散云层高于25000英尺

TAF: KBDR 170523Z 1706/1806 VRB04KT P6SM BKN060 BKN100 BKN250 FM171000 32004KT P6SM FEW060 BKN250 FM171400 34008KT P6SM FEW060 SCT250 FM172300 01005KT P6SM SCT250 FM180300 VRB03KT P6SM SCT250

超过4000个机场的气象观测和天气预报(METAR&TAF报告)。

可查询的气象台以黄色和红色小点在地图上表示。

将鼠标移到小点上方,可查看气象台名称。

然后点击查看天气观测和预报。

如需切换地图:点击带黑十字的绿色按钮放大地图;点击带横线的绿色按钮缩小地图;或者点击绿色箭头查看邻近地区的地图。


METAR-TAF: